createdAt,value
2018-02-18T00:04:37.898Z,101936
2018-02-18T00:07:08.970Z,101936
2018-02-18T00:09:40.556Z,101932
2018-02-18T00:14:56.222Z,101799
2018-02-18T00:17:26.658Z,101944
2018-02-18T00:19:56.718Z,101940
2018-02-18T00:22:26.595Z,101941
2018-02-18T00:24:56.422Z,101938
2018-02-18T00:27:31.721Z,101939
2018-02-18T00:30:02.597Z,101943
2018-02-18T00:32:32.729Z,101951
2018-02-18T00:35:02.618Z,101948
2018-02-18T00:37:32.504Z,101948
2018-02-18T00:40:02.406Z,101942
2018-02-18T00:42:32.270Z,101941
2018-02-18T00:45:03.250Z,101951
2018-02-18T00:47:33.192Z,101944
2018-02-18T00:50:03.166Z,101943
2018-02-18T00:52:34.140Z,101942
2018-02-18T00:55:04.159Z,101946
2018-02-18T00:57:34.049Z,101940
2018-02-18T01:00:04.368Z,101942
2018-02-18T01:02:34.271Z,101696
2018-02-18T01:05:04.664Z,101934
2018-02-18T01:07:35.436Z,101933
2018-02-18T01:10:05.378Z,101932
2018-02-18T01:12:35.262Z,101918
2018-02-18T01:15:05.173Z,101934
2018-02-18T01:17:35.767Z,101934
2018-02-18T01:20:05.712Z,101930
2018-02-18T01:22:35.832Z,101938
2018-02-18T01:25:05.768Z,101939
2018-02-18T01:27:35.714Z,101938
2018-02-18T01:30:06.443Z,101940
2018-02-18T01:32:36.520Z,101947
2018-02-18T01:37:55.840Z,101950
2018-02-18T01:40:25.749Z,101949
2018-02-18T01:42:55.618Z,101948
2018-02-18T01:45:25.553Z,101953
2018-02-18T01:47:57.331Z,101948
2018-02-18T01:50:38.139Z,101949
2018-02-18T01:53:09.098Z,101941
2018-02-18T01:55:38.943Z,101943
2018-02-18T01:58:09.155Z,101938
2018-02-18T02:00:39.154Z,101928
2018-02-18T02:03:09.873Z,101946
2018-02-18T02:05:41.078Z,101943
2018-02-18T02:08:10.975Z,101946
2018-02-18T02:10:40.889Z,101943
2018-02-18T02:13:11.899Z,101934
2018-02-18T02:15:42.986Z,101937
2018-02-18T02:18:12.922Z,101666
2018-02-18T02:20:42.801Z,101935
2018-02-18T02:23:12.816Z,101939
2018-02-18T02:25:42.748Z,101934
2018-02-18T02:28:12.612Z,101935
2018-02-18T02:30:42.535Z,101938
2018-02-18T02:33:12.871Z,101924
2018-02-18T02:35:43.320Z,101933
2018-02-18T02:38:14.821Z,101934
2018-02-18T02:40:45.628Z,101938
2018-02-18T02:43:15.449Z,101935
2018-02-18T02:45:45.944Z,101937
2018-02-18T02:48:15.874Z,101939
2018-02-18T02:50:47.957Z,101931
2018-02-18T02:53:19.058Z,101927
2018-02-18T02:55:49.667Z,101936
2018-02-18T02:58:19.614Z,101933
2018-02-18T03:00:51.315Z,101925
2018-02-18T03:03:22.042Z,101929
2018-02-18T03:05:53.334Z,101935
2018-02-18T03:08:23.985Z,101930
2018-02-18T03:10:54.199Z,101931
2018-02-18T03:13:24.065Z,101937
2018-02-18T03:15:54.859Z,101929
2018-02-18T03:18:24.685Z,101924
2018-02-18T03:20:55.921Z,101924
2018-02-18T03:23:26.797Z,101925
2018-02-18T03:25:57.374Z,101916
2018-02-18T03:28:28.835Z,101919
2018-02-18T03:30:58.894Z,101929
2018-02-18T03:33:29.257Z,101932
2018-02-18T03:36:04.577Z,101923
2018-02-18T03:38:35.810Z,101917
2018-02-18T03:41:11.295Z,101926
2018-02-18T03:43:48.105Z,101932
2018-02-18T03:46:19.149Z,101929
2018-02-18T03:48:52.418Z,101921
2018-02-18T03:51:23.227Z,101928
2018-02-18T03:53:53.543Z,101926
2018-02-18T03:56:23.760Z,101933
2018-02-18T03:58:54.255Z,101931
2018-02-18T04:01:24.676Z,101931
2018-02-18T04:03:55.486Z,101942
2018-02-18T04:06:25.384Z,101939
2018-02-18T04:08:55.282Z,101943
2018-02-18T04:11:26.348Z,101940
2018-02-18T04:13:57.564Z,101940
2018-02-18T04:16:27.420Z,101938
2018-02-18T04:18:57.427Z,101948
2018-02-18T04:21:27.286Z,101950
2018-02-18T04:23:57.364Z,101942
2018-02-18T04:26:27.196Z,101950
2018-02-18T04:28:57.140Z,101946
2018-02-18T04:31:26.982Z,101944
2018-02-18T04:33:56.809Z,101950
2018-02-18T04:36:26.672Z,101950
2018-02-18T04:38:57.111Z,101953
2018-02-18T04:41:26.963Z,101951
2018-02-18T04:43:56.835Z,101952
2018-02-18T04:46:26.700Z,101951
2018-02-18T04:48:57.532Z,101949
2018-02-18T04:51:27.380Z,101961
2018-02-18T04:53:57.271Z,101959
2018-02-18T04:56:27.134Z,101956
2018-02-18T04:58:57.010Z,101956
2018-02-18T05:01:26.871Z,101957
2018-02-18T05:03:56.841Z,101967
2018-02-18T05:06:26.702Z,101974
2018-02-18T05:08:56.703Z,101969
2018-02-18T05:11:26.533Z,101971
2018-02-18T05:13:56.371Z,101972
2018-02-18T05:16:26.222Z,101975
2018-02-18T05:18:56.074Z,101975
2018-02-18T05:21:25.940Z,101975
2018-02-18T05:23:55.778Z,101978
2018-02-18T05:26:25.651Z,101982
2018-02-18T05:28:55.497Z,101991
2018-02-18T05:31:25.374Z,101984
2018-02-18T05:33:55.193Z,101983
2018-02-18T05:36:25.074Z,101986
2018-02-18T05:38:54.936Z,101990
2018-02-18T05:41:25.555Z,101993
2018-02-18T05:43:55.433Z,101986
2018-02-18T05:46:26.221Z,101984
2018-02-18T05:48:56.095Z,101998
2018-02-18T05:51:25.943Z,102000
2018-02-18T05:53:55.973Z,101997
2018-02-18T05:56:25.822Z,102003
2018-02-18T05:58:55.686Z,101989
2018-02-18T06:01:25.514Z,102003
2018-02-18T06:03:55.394Z,102008
2018-02-18T06:06:25.318Z,102012
2018-02-18T06:08:55.162Z,102007
2018-02-18T06:11:25.064Z,102011
2018-02-18T06:13:54.938Z,102015
2018-02-18T06:16:24.895Z,102015
2018-02-18T06:18:54.746Z,102016
2018-02-18T06:21:24.687Z,102011
2018-02-18T06:23:54.553Z,102016
2018-02-18T06:26:24.466Z,102014
2018-02-18T06:31:30.673Z,102013
2018-02-18T06:34:00.557Z,102011
2018-02-18T06:36:30.412Z,102009
2018-02-18T06:39:00.284Z,102011
2018-02-18T06:41:30.153Z,102002
2018-02-18T06:44:00.120Z,102011
2018-02-18T06:46:29.971Z,102012
2018-02-18T06:48:59.877Z,102010
2018-02-18T06:51:29.750Z,102006
2018-02-18T06:53:59.674Z,102006
2018-02-18T06:56:29.515Z,102001
2018-02-18T06:58:59.383Z,101998
2018-02-18T07:01:29.374Z,102001
2018-02-18T07:03:59.240Z,101996
2018-02-18T07:06:29.125Z,102006
2018-02-18T07:08:58.975Z,102006
2018-02-18T07:11:28.860Z,102005
2018-02-18T07:13:58.710Z,101997
2018-02-18T07:16:28.574Z,102000
2018-02-18T07:18:58.515Z,102000
2018-02-18T07:21:28.396Z,102004
2018-02-18T07:23:58.264Z,102012
2018-02-18T07:26:28.126Z,102013
2018-02-18T07:28:58.662Z,102012
2018-02-18T07:31:28.498Z,102023
2018-02-18T07:33:58.338Z,102021
2018-02-18T07:36:28.180Z,102019
2018-02-18T07:38:58.171Z,102023
2018-02-18T07:41:28.037Z,102011
2018-02-18T07:43:58.253Z,102012
2018-02-18T07:46:28.127Z,102007
2018-02-18T07:48:58.694Z,102007
2018-02-18T07:51:28.602Z,101998
2018-02-18T07:53:58.518Z,102003
2018-02-18T07:56:28.399Z,101998
2018-02-18T07:58:58.285Z,101995
2018-02-18T08:01:28.190Z,101998
2018-02-18T08:03:58.152Z,101998
2018-02-18T08:06:28.070Z,101996
2018-02-18T08:08:57.961Z,102002
2018-02-18T08:11:27.906Z,102001
2018-02-18T08:13:57.776Z,102010
2018-02-18T08:16:27.710Z,102009
2018-02-18T08:18:58.657Z,102001
2018-02-18T08:21:28.504Z,102011
2018-02-18T08:23:58.512Z,102013
2018-02-18T08:26:28.393Z,102003
2018-02-18T08:28:58.265Z,102012
2018-02-18T08:31:28.078Z,102000
2018-02-18T08:33:57.980Z,102001
2018-02-18T08:36:27.899Z,102000
2018-02-18T08:38:57.902Z,102004
2018-02-18T08:44:04.731Z,102001
2018-02-18T08:46:34.569Z,102006
2018-02-18T08:49:05.214Z,102002
2018-02-18T08:51:35.062Z,101999
2018-02-18T08:54:04.994Z,101999
2018-02-18T08:56:34.865Z,101999
2018-02-18T08:59:04.750Z,102003
2018-02-18T09:01:34.627Z,102007
2018-02-18T09:04:04.505Z,102001
2018-02-18T09:06:34.379Z,102002
2018-02-18T09:09:04.237Z,102006
2018-02-18T09:11:34.167Z,102000
2018-02-18T09:14:04.014Z,101989
2018-02-18T09:16:33.889Z,101998
2018-02-18T09:19:03.734Z,101997
2018-02-18T09:21:33.651Z,101994
2018-02-18T09:24:03.526Z,102004
2018-02-18T09:26:33.404Z,102008
2018-02-18T09:29:03.247Z,102004
2018-02-18T09:31:33.078Z,102007
2018-02-18T09:34:03.006Z,102005
2018-02-18T09:36:32.837Z,102000
2018-02-18T09:39:02.994Z,101992
2018-02-18T09:41:32.900Z,101994
2018-02-18T09:44:02.861Z,102000
2018-02-18T09:46:32.929Z,101991
2018-02-18T09:49:02.861Z,102009
2018-02-18T09:51:37.871Z,102002
2018-02-18T09:54:07.988Z,102005
2018-02-18T09:56:38.000Z,102003
2018-02-18T09:59:07.986Z,102013
2018-02-18T10:01:37.999Z,102011
2018-02-18T10:04:07.877Z,102011
2018-02-18T10:06:37.955Z,102011
2018-02-18T10:09:07.960Z,102012
2018-02-18T10:11:37.845Z,102013
2018-02-18T10:14:07.890Z,102002
2018-02-18T10:16:37.713Z,102015
2018-02-18T10:19:07.668Z,102008
2018-02-18T10:21:37.638Z,102011
2018-02-18T10:24:07.615Z,102011
2018-02-18T10:26:37.464Z,102011
2018-02-18T10:29:07.296Z,102014
2018-02-18T10:31:37.231Z,102003
2018-02-18T10:34:07.072Z,102008
2018-02-18T10:36:36.966Z,102011
2018-02-18T10:39:06.796Z,102011
2018-02-18T10:41:36.717Z,102013
2018-02-18T10:44:06.632Z,102014
2018-02-18T10:46:36.601Z,102015
2018-02-18T10:49:06.458Z,102010
2018-02-18T10:51:36.369Z,102009
2018-02-18T10:54:09.138Z,102011
2018-02-18T10:56:39.050Z,102009
2018-02-18T10:59:09.226Z,101997
2018-02-18T11:01:39.211Z,101996
2018-02-18T11:04:09.147Z,101992
2018-02-18T11:06:39.025Z,101987
2018-02-18T11:09:08.881Z,101993
2018-02-18T11:11:38.747Z,101995
2018-02-18T11:14:08.676Z,101991
2018-02-18T11:16:38.607Z,101984
2018-02-18T11:19:08.475Z,101977
2018-02-18T11:21:38.402Z,101981
2018-02-18T11:24:08.258Z,101980
2018-02-18T11:26:38.113Z,101968
2018-02-18T11:29:07.988Z,101962
2018-02-18T11:31:37.843Z,101960
2018-02-18T11:34:07.718Z,101946
2018-02-18T11:36:37.688Z,101950
2018-02-18T11:39:07.608Z,101945
2018-02-18T11:41:38.642Z,101950
2018-02-18T11:44:08.470Z,101942
2018-02-18T11:46:38.490Z,101935
2018-02-18T11:49:08.606Z,101928
2018-02-18T11:51:38.438Z,101925
2018-02-18T11:54:08.297Z,101925
2018-02-18T11:56:38.168Z,101918
2018-02-18T11:59:08.038Z,101924
2018-02-18T12:01:37.907Z,101911
2018-02-18T12:04:07.794Z,101909
2018-02-18T12:06:37.644Z,101911
2018-02-18T12:09:07.550Z,101911
2018-02-18T12:11:37.416Z,101914
2018-02-18T12:14:07.291Z,101906
2018-02-18T12:16:37.124Z,101902
2018-02-18T12:19:06.986Z,101906
2018-02-18T12:21:36.867Z,101899
2018-02-18T12:24:06.749Z,101895
2018-02-18T12:26:36.728Z,101668
2018-02-18T12:29:06.573Z,101897
2018-02-18T12:31:36.510Z,101895
2018-02-18T12:34:06.373Z,101894
2018-02-18T12:36:36.233Z,101886
2018-02-18T12:39:06.114Z,101887
2018-02-18T12:41:36.035Z,101883
2018-02-18T12:44:05.940Z,101878
2018-02-18T12:46:35.985Z,101880
2018-02-18T12:49:05.867Z,101875
2018-02-18T12:51:35.817Z,101883
2018-02-18T12:54:06.440Z,101878
2018-02-18T12:56:36.311Z,101886
2018-02-18T12:59:06.185Z,101870
2018-02-18T13:01:36.015Z,101873
2018-02-18T13:04:05.983Z,101870
2018-02-18T13:06:35.847Z,101869
2018-02-18T13:09:05.749Z,101858
2018-02-18T13:11:36.145Z,101857
2018-02-18T13:14:06.008Z,101857
2018-02-18T13:16:36.079Z,101853
2018-02-18T13:19:06.109Z,101845
2018-02-18T13:21:36.012Z,101851
2018-02-18T13:24:06.032Z,101858
2018-02-18T13:26:35.962Z,101853
2018-02-18T13:29:06.134Z,101852
2018-02-18T13:31:36.074Z,101856
2018-02-18T13:34:06.045Z,101842
2018-02-18T13:36:36.381Z,101843
2018-02-18T13:39:06.278Z,101831
2018-02-18T13:41:36.200Z,101834
2018-02-18T13:44:06.701Z,101825
2018-02-18T13:46:36.581Z,101826
2018-02-18T13:49:06.580Z,101832
2018-02-18T13:51:36.429Z,101824
2018-02-18T13:54:06.317Z,101828
2018-02-18T13:56:36.313Z,101823
2018-02-18T13:59:06.244Z,101825
2018-02-18T14:01:36.166Z,101831
2018-02-18T14:04:06.013Z,101828
2018-02-18T14:06:35.899Z,101820
2018-02-18T14:09:05.926Z,101823
2018-02-18T14:11:35.934Z,101821
2018-02-18T14:14:05.874Z,101822
2018-02-18T14:16:35.804Z,101822
2018-02-18T14:19:05.691Z,101819
2018-02-18T14:21:35.627Z,101822
2018-02-18T14:24:05.481Z,101823
2018-02-18T14:26:35.370Z,101820
2018-02-18T14:29:05.289Z,101819
2018-02-18T14:31:35.269Z,101819
2018-02-18T14:34:05.130Z,101813
2018-02-18T14:36:35.027Z,101810
2018-02-18T14:39:04.920Z,101808
2018-02-18T14:41:46.370Z,101806
2018-02-18T14:44:28.212Z,101813
2018-02-18T14:47:23.698Z,101813
2018-02-18T14:50:05.166Z,101810
2018-02-18T14:52:46.773Z,101808
2018-02-18T14:55:28.606Z,101803
2018-02-18T14:57:58.472Z,101809
2018-02-18T15:00:28.403Z,101795
2018-02-18T15:02:58.304Z,101801
2018-02-18T15:05:28.179Z,101795
2018-02-18T15:07:58.045Z,101793
2018-02-18T15:10:27.920Z,101798
2018-02-18T15:12:57.760Z,101799
2018-02-18T15:15:27.654Z,101796
2018-02-18T15:17:57.507Z,101791
2018-02-18T15:20:27.402Z,101793
2018-02-18T15:22:57.291Z,101796
2018-02-18T15:25:27.160Z,101792
2018-02-18T15:27:57.176Z,101776
2018-02-18T15:30:27.024Z,101785
2018-02-18T15:32:56.911Z,101778
2018-02-18T15:35:26.799Z,101775
2018-02-18T15:37:56.693Z,101780
2018-02-18T15:40:26.559Z,101779
2018-02-18T15:42:56.567Z,101774
2018-02-18T15:45:27.385Z,101777
2018-02-18T15:47:58.300Z,101769
2018-02-18T15:50:28.175Z,101777
2018-02-18T15:52:58.020Z,101782
2018-02-18T15:55:27.894Z,101779
2018-02-18T15:57:57.736Z,101730
2018-02-18T16:00:27.617Z,101778
2018-02-18T16:02:57.541Z,101778
2018-02-18T16:05:27.398Z,101769
2018-02-18T16:07:57.392Z,101763
2018-02-18T16:10:27.392Z,101762
2018-02-18T16:12:57.260Z,101759
2018-02-18T16:15:28.220Z,101760
2018-02-18T16:17:58.167Z,101756
2018-02-18T16:20:28.371Z,101755
2018-02-18T16:22:58.308Z,101759
2018-02-18T16:25:28.228Z,101756
2018-02-18T16:27:58.125Z,101766
2018-02-18T16:30:27.993Z,101760
2018-02-18T16:32:57.911Z,101757
2018-02-18T16:35:27.862Z,101763
2018-02-18T16:37:57.829Z,101763
2018-02-18T16:40:28.130Z,101758
2018-02-18T16:42:58.034Z,101761
2018-02-18T16:45:28.626Z,101761
2018-02-18T16:47:58.614Z,101769
2018-02-18T16:50:28.705Z,101778
2018-02-18T16:52:58.682Z,101772
2018-02-18T16:55:28.514Z,101765
2018-02-18T16:57:58.913Z,101748
2018-02-18T17:00:28.760Z,101762
2018-02-18T17:02:59.257Z,101753
2018-02-18T17:05:29.222Z,101753
2018-02-18T17:07:59.182Z,101758
2018-02-18T17:10:29.227Z,101750
2018-02-18T17:12:59.164Z,101751
2018-02-18T17:15:29.047Z,101748
2018-02-18T17:17:59.071Z,101748
2018-02-18T17:20:28.949Z,101743
2018-02-18T17:22:58.914Z,101746
2018-02-18T17:25:28.846Z,101742
2018-02-18T17:27:58.729Z,101735
2018-02-18T17:30:28.706Z,101737
2018-02-18T17:32:58.589Z,101736
2018-02-18T17:35:28.520Z,101734
2018-02-18T17:37:58.393Z,101739
2018-02-18T17:40:28.221Z,101743
2018-02-18T17:42:58.132Z,101746
2018-02-18T17:45:28.079Z,101743
2018-02-18T17:47:58.033Z,101747
2018-02-18T17:50:27.922Z,101738
2018-02-18T17:52:57.926Z,101736
2018-02-18T17:55:27.966Z,101740
2018-02-18T17:57:58.024Z,101744
2018-02-18T18:00:27.985Z,101746
2018-02-18T18:02:57.986Z,101737
2018-02-18T18:05:27.948Z,101729
2018-02-18T18:07:57.816Z,101737
2018-02-18T18:10:27.826Z,101733
2018-02-18T18:12:57.786Z,101729
2018-02-18T18:15:27.694Z,101731
2018-02-18T18:17:57.589Z,101719
2018-02-18T18:20:27.448Z,101716
2018-02-18T18:22:57.307Z,101726
2018-02-18T18:25:27.385Z,101717
2018-02-18T18:27:57.236Z,101718
2018-02-18T18:30:27.098Z,101710
2018-02-18T18:32:57.016Z,101724
2018-02-18T18:37:20.180Z,101714
2018-02-18T18:39:50.068Z,101709
2018-02-18T18:42:19.894Z,101711
2018-02-18T18:44:49.832Z,101698
2018-02-18T18:47:19.680Z,101709
2018-02-18T18:49:49.544Z,101701
2018-02-18T18:52:19.460Z,101691
2018-02-18T18:54:49.998Z,101693
2018-02-18T18:57:19.852Z,101706
2018-02-18T18:59:49.735Z,101698
2018-02-18T19:02:19.566Z,101692
2018-02-18T19:04:49.508Z,101689
2018-02-18T19:07:19.412Z,101691
2018-02-18T19:09:49.299Z,101684
2018-02-18T19:12:19.162Z,101687
2018-02-18T19:14:49.115Z,101689
2018-02-18T19:17:18.964Z,101692
2018-02-18T19:19:48.856Z,101686
2018-02-18T19:22:18.737Z,101677
2018-02-18T19:24:48.704Z,101672
2018-02-18T19:27:18.729Z,101679
2018-02-18T19:29:48.621Z,101669
2018-02-18T19:32:18.471Z,101666
2018-02-18T19:34:48.357Z,101665
2018-02-18T19:37:18.203Z,101663
2018-02-18T19:39:48.050Z,101656
2018-02-18T19:42:17.908Z,101655
2018-02-18T19:44:47.812Z,101649
2018-02-18T19:47:17.691Z,101652
2018-02-18T19:49:47.602Z,101657
2018-02-18T19:52:17.475Z,101659
2018-02-18T19:54:47.320Z,101656
2018-02-18T19:57:17.215Z,101655
2018-02-18T19:59:47.097Z,101667
2018-02-18T20:02:16.949Z,101669
2018-02-18T20:04:46.836Z,101655
2018-02-18T20:07:16.745Z,101662
2018-02-18T20:09:46.690Z,101661
2018-02-18T20:12:16.570Z,101663
2018-02-18T20:14:46.418Z,101666
2018-02-18T20:17:17.182Z,101647
2018-02-18T20:19:47.038Z,101660
2018-02-18T20:22:16.933Z,101651
2018-02-18T20:24:46.878Z,101662
2018-02-18T20:27:16.836Z,101654
2018-02-18T20:29:46.762Z,101648
2018-02-18T20:32:16.654Z,101654
2018-02-18T20:34:46.540Z,101653
2018-02-18T20:37:16.381Z,101653
2018-02-18T20:39:46.320Z,101649
2018-02-18T20:42:16.148Z,101653
2018-02-18T20:44:46.066Z,101649
2018-02-18T20:47:15.909Z,101663
2018-02-18T20:49:45.769Z,101654
2018-02-18T20:52:15.610Z,101654
2018-02-18T20:54:45.556Z,101642
2018-02-18T20:57:15.434Z,101645
2018-02-18T20:59:45.330Z,101628
2018-02-18T21:02:15.272Z,101630
2018-02-18T21:04:45.114Z,101628
2018-02-18T21:07:15.161Z,101625
2018-02-18T21:09:45.021Z,101628
2018-02-18T21:12:15.011Z,101623
2018-02-18T21:14:44.869Z,101632
2018-02-18T21:17:14.722Z,101628
2018-02-18T21:19:44.628Z,101625
2018-02-18T21:22:14.592Z,101631
2018-02-18T21:24:44.442Z,101617
2018-02-18T21:27:14.366Z,101617
2018-02-18T21:29:44.216Z,101619
2018-02-18T21:32:14.090Z,101615
2018-02-18T21:34:44.940Z,101614
2018-02-18T21:37:14.869Z,101601
2018-02-18T21:39:44.806Z,101603
2018-02-18T21:42:14.709Z,101614
2018-02-18T21:44:44.615Z,101612
2018-02-18T21:47:14.523Z,101607
2018-02-18T21:49:45.428Z,101604
2018-02-18T21:52:17.562Z,101605
2018-02-18T21:54:47.420Z,101607
2018-02-18T21:57:17.313Z,101598
2018-02-18T21:59:47.215Z,101606
2018-02-18T22:02:17.127Z,101600
2018-02-18T22:04:46.969Z,101604
2018-02-18T22:07:16.915Z,101602
2018-02-18T22:09:47.831Z,101608
2018-02-18T22:12:17.830Z,101612
2018-02-18T22:14:47.782Z,101604
2018-02-18T22:17:17.712Z,101599
2018-02-18T22:19:47.808Z,101609
2018-02-18T22:22:17.812Z,101598
2018-02-18T22:24:47.727Z,101595
2018-02-18T22:27:17.641Z,101601
2018-02-18T22:29:47.682Z,101602
2018-02-18T22:32:17.817Z,101592
2018-02-18T22:34:47.836Z,101595
2018-02-18T22:37:17.825Z,101591
2018-02-18T22:39:47.912Z,101588
2018-02-18T22:42:17.840Z,101591
2018-02-18T22:44:47.756Z,101586
2018-02-18T22:47:17.686Z,101582
2018-02-18T22:49:47.584Z,101582
2018-02-18T22:52:17.470Z,101577
2018-02-18T22:54:47.303Z,101587
2018-02-18T22:57:17.187Z,101576
2018-02-18T22:59:47.024Z,101564
2018-02-18T23:02:16.911Z,101564
2018-02-18T23:04:46.784Z,101572
2018-02-18T23:07:16.631Z,101569
2018-02-18T23:09:46.693Z,101572
2018-02-18T23:12:16.535Z,101572
2018-02-18T23:14:46.670Z,101569
2018-02-18T23:17:16.635Z,101570
2018-02-18T23:19:46.541Z,101573
2018-02-18T23:22:16.373Z,101568
2018-02-18T23:24:46.221Z,101563
2018-02-18T23:27:16.118Z,101565
2018-02-18T23:29:45.962Z,101559
2018-02-18T23:32:15.928Z,101563
2018-02-18T23:34:45.758Z,101551
2018-02-18T23:37:15.638Z,101559
2018-02-18T23:39:45.514Z,101550
2018-02-18T23:42:15.368Z,101549
2018-02-18T23:44:45.205Z,101528
2018-02-18T23:47:15.118Z,101549
2018-02-18T23:49:45.005Z,101546
2018-02-18T23:52:14.833Z,101537
2018-02-18T23:54:44.853Z,101540
2018-02-18T23:57:14.707Z,101538
2018-02-18T23:59:44.592Z,101539
